Calais, Vermont
Current Conditions -  °F | °C
As of 12:25 PM on Thursday 23 Oct 2014 (Local Time) from KMVL Reporting Station
Light Rain Light Rain  
Wind Chill: 39°   Ceiling: 1300
Heat Index: 45°   Visibility: 10mi
Dew Point: 41°   Wind: 12mph
Humidity: 86%   Direction: 350°N
Pressure: 29.94"   Gusts: NA
Location:  44.38°N, 72.49°W
Report Text: KMVL 231625Z AUTO 35010KT 10SM -RA OVC013 07/05 A2994 RMK AO2 RAB06 P0000 T00720050
Loading
Personal Weather Stations






























Interactive Weather Map
Tropical Storm Tracking
New forecast layout! Learn more

10-Day Weather Forecast

Advertisements
Track Severe Weather on mobile